Time;durP1;ratioP1;P1;durP2;ratioP2;P2;SDS_P1;SDS_P2;PMS_P1;PMS_P2;Temp;Humidity;BMP_temperature;BMP_pressure;BME280_temperature;BME280_humidity;BME280_pressure;Samples;Min_cycle;Max_cycle;Signal;HPM_P1;HPM_P2
2024/02/28 00:02:53;;;;;;;18.73;9.70;;;;;;;6.63;64.57;100545.69;10303322;28;20054;-60
2024/02/28 00:07:54;;;;;;;18.15;8.25;;;;;;;6.62;64.72;100550.22;10302648;28;20050;-59
2024/02/28 00:12:56;;;;;;;17.45;8.85;;;;;;;6.63;64.08;100551.03;10302079;28;20069;-60
2024/02/28 00:17:57;;;;;;;20.60;9.48;;;;;;;6.57;64.29;100557.81;10296057;28;20050;-60
2024/02/28 00:22:59;;;;;;;18.33;8.38;;;;;;;6.55;64.37;100565.13;10297463;28;20104;-60
2024/02/28 00:28:00;;;;;;;20.13;9.85;;;;;;;6.55;64.69;100560.59;10304573;28;20054;-60
2024/02/28 00:33:02;;;;;;;18.80;9.35;;;;;;;6.58;64.36;100559.50;10299551;28;20145;-60
2024/02/28 00:38:03;;;;;;;18.70;8.60;;;;;;;6.54;64.68;100566.13;10297647;28;20057;-60
2024/02/28 00:43:05;;;;;;;23.02;10.95;;;;;;;6.49;64.44;100566.53;10299576;28;20062;-61
2024/02/28 00:48:06;;;;;;;22.27;10.55;;;;;;;6.52;64.42;100568.94;10299289;28;20061;-60
2024/02/28 00:53:08;;;;;;;23.05;10.27;;;;;;;6.51;64.09;100571.72;10279235;28;20532;-60
2024/02/28 00:58:10;;;;;;;20.15;10.00;;;;;;;6.44;64.59;100563.47;10298127;28;20685;-60
2024/02/28 01:03:14;;;;;;;16.85;8.52;;;;;;;6.40;64.16;100577.22;10303673;28;20054;-60
2024/02/28 01:08:17;;;;;;;19.48;9.60;;;;;;;6.34;64.36;100586.69;10280196;28;20075;-60
2024/02/28 01:13:19;;;;;;;23.02;11.35;;;;;;;6.31;64.70;100586.94;10293320;28;20391;-59
2024/02/28 01:18:20;;;;;;;22.77;10.25;;;;;;;6.23;64.16;100593.00;10297116;28;20069;-59
2024/02/28 01:23:21;;;;;;;22.25;10.35;;;;;;;6.10;64.54;100595.97;10299438;28;20081;-59
2024/02/28 01:28:23;;;;;;;20.83;9.70;;;;;;;6.05;64.67;100602.72;10295784;28;20042;-59
2024/02/28 01:33:24;;;;;;;20.52;9.82;;;;;;;6.01;65.07;100594.13;10300798;28;20050;-58
2024/02/28 01:38:26;;;;;;;25.60;9.90;;;;;;;5.98;64.63;100601.56;10298813;28;20053;-59
2024/02/28 01:43:28;;;;;;;21.65;9.65;;;;;;;5.87;65.05;100618.53;10298618;28;20054;-59
2024/02/28 01:48:29;;;;;;;23.85;10.52;;;;;;;5.79;65.41;100613.88;10303803;28;20126;-59
2024/02/28 01:53:31;;;;;;;19.92;9.50;;;;;;;5.82;65.61;100618.09;10297501;28;20477;-59
2024/02/28 01:58:33;;;;;;;22.83;9.40;;;;;;;5.75;64.57;100607.97;10299284;28;20402;-59
2024/02/28 02:03:34;;;;;;;18.85;9.48;;;;;;;5.71;64.73;100601.25;10298768;28;20675;-59
2024/02/28 02:08:36;;;;;;;19.92;9.32;;;;;;;5.57;64.82;100606.97;10297162;28;20053;-58
2024/02/28 02:13:49;;;;;;;17.98;8.75;;;;;;;5.49;65.07;100614.78;10297373;28;20069;-59
2024/02/28 02:18:50;;;;;;;20.30;9.60;;;;;;;5.38;65.40;100622.94;10296895;28;20051;-58
2024/02/28 02:23:52;;;;;;;20.70;9.15;;;;;;;5.38;65.42;100623.75;10301708;28;20054;-57
2024/02/28 02:28:53;;;;;;;22.17;8.18;;;;;;;5.30;65.19;100621.78;10296308;28;20403;-57
2024/02/28 02:33:55;;;;;;;22.50;9.93;;;;;;;5.26;65.11;100616.84;10294730;28;20050;-57
2024/02/28 02:38:57;;;;;;;21.67;9.07;;;;;;;5.27;65.70;100622.06;10297980;28;20101;-56
2024/02/28 02:43:59;;;;;;;22.02;9.38;;;;;;;5.26;65.88;100627.50;10300948;28;20046;-56
2024/02/28 02:49:00;;;;;;;20.17;8.65;;;;;;;5.25;65.17;100634.66;10301617;28;20054;-57
2024/02/28 02:54:02;;;;;;;21.70;8.70;;;;;;;5.20;64.97;100631.56;10300737;28;20726;-57
2024/02/28 02:59:03;;;;;;;22.55;9.30;;;;;;;5.12;64.81;100634.06;10304022;28;20523;-57
2024/02/28 03:04:05;;;;;;;21.27;9.32;;;;;;;5.04;65.49;100636.53;10305510;28;20058;-57
2024/02/28 03:09:07;;;;;;;19.70;8.60;;;;;;;4.94;65.25;100637.31;10304089;28;20979;-56
2024/02/28 03:14:09;;;;;;;23.88;10.02;;;;;;;4.81;65.66;100641.19;10301414;28;20061;-58
2024/02/28 03:19:10;;;;;;;23.58;10.75;;;;;;;4.68;66.01;100647.56;10290972;28;20737;-57
2024/02/28 03:24:12;;;;;;;22.20;9.95;;;;;;;4.60;66.03;100646.50;10300618;28;20073;-57
2024/02/28 03:29:13;;;;;;;23.17;9.20;;;;;;;4.47;65.97;100660.84;10303381;28;20053;-57
2024/02/28 03:34:15;;;;;;;23.35;10.70;;;;;;;4.39;65.84;100668.66;10302449;28;20117;-60
2024/02/28 03:39:17;;;;;;;27.02;11.50;;;;;;;4.33;66.17;100671.81;10308095;28;20054;-60
2024/02/28 03:44:19;;;;;;;23.75;9.65;;;;;;;4.25;66.00;100683.09;10304963;28;20402;-61
2024/02/28 03:49:20;;;;;;;25.92;11.27;;;;;;;4.15;66.04;100682.16;10304122;28;20057;-60
2024/02/28 03:54:21;;;;;;;26.42;10.40;;;;;;;4.07;66.38;100685.47;10304751;28;20054;-60
2024/02/28 03:59:23;;;;;;;27.67;11.07;;;;;;;4.01;66.42;100691.28;10285265;28;20465;-60
2024/02/28 04:04:25;;;;;;;32.58;11.75;;;;;;;4.01;66.46;100703.72;10301052;28;20042;-59
2024/02/28 04:09:26;;;;;;;26.00;12.43;;;;;;;3.98;66.55;100726.09;10303175;28;20603;-60
2024/02/28 04:14:28;;;;;;;32.28;13.30;;;;;;;3.94;66.27;100729.97;10304278;28;20121;-59
2024/02/28 04:19:33;;;;;;;32.97;13.70;;;;;;;3.89;66.81;100711.75;10303199;28;20052;-59
2024/02/28 04:24:35;;;;;;;32.20;12.95;;;;;;;3.86;67.06;100722.59;10301628;28;20065;-60
2024/02/28 04:29:36;;;;;;;35.10;12.70;;;;;;;3.84;66.72;100729.03;10302789;28;20215;-59
2024/02/28 04:34:38;;;;;;;26.23;11.60;;;;;;;3.81;67.17;100729.25;10301030;28;20453;-59
2024/02/28 04:39:40;;;;;;;30.83;12.38;;;;;;;3.80;67.05;100739.06;10300192;28;20647;-59
2024/02/28 04:44:42;;;;;;;34.55;12.32;;;;;;;3.78;66.81;100741.00;10297088;28;20050;-58
2024/02/28 04:49:43;;;;;;;31.08;12.57;;;;;;;3.73;67.48;100751.13;10298888;28;20475;-57
2024/02/28 04:54:45;;;;;;;34.38;12.40;;;;;;;3.68;67.25;100756.84;10294838;28;20042;-57
2024/02/28 04:59:46;;;;;;;35.17;13.50;;;;;;;3.62;67.45;100764.47;10297085;28;20058;-58
2024/02/28 05:04:48;;;;;;;38.85;14.65;;;;;;;3.60;67.81;100771.72;10294127;28;20046;-58
2024/02/28 05:09:50;;;;;;;38.47;14.73;;;;;;;3.64;67.56;100781.13;10299315;28;20054;-58
2024/02/28 05:14:51;;;;;;;36.00;12.90;;;;;;;3.70;67.73;100777.97;10298877;28;20043;-57
2024/02/28 05:19:57;;;;;;;34.42;14.10;;;;;;;3.68;68.11;100793.22;10294109;28;20114;-57
2024/02/28 05:24:58;;;;;;;37.95;13.38;;;;;;;3.68;67.84;100788.72;10298266;28;20106;-57
2024/02/28 05:30:01;;;;;;;35.78;13.77;;;;;;;3.67;68.21;100787.03;10294180;28;20585;-57
2024/02/28 05:35:03;;;;;;;35.15;14.00;;;;;;;3.67;67.92;100795.00;10298796;28;20043;-57
2024/02/28 05:40:07;;;;;;;43.75;14.00;;;;;;;3.64;68.16;100805.06;10298759;28;20066;-57
2024/02/28 05:45:08;;;;;;;34.60;13.85;;;;;;;3.61;68.16;100800.81;10300080;28;20494;-57
2024/02/28 05:50:10;;;;;;;39.30;14.35;;;;;;;3.58;68.29;100815.19;10297610;28;20054;-59
2024/02/28 05:55:11;;;;;;;40.33;14.27;;;;;;;3.51;68.44;100821.94;10294198;28;20413;-57
2024/02/28 06:00:14;;;;;;;32.28;13.57;;;;;;;3.48;68.39;100824.84;10298486;28;20046;-57
2024/02/28 06:05:15;;;;;;;32.42;13.25;;;;;;;3.44;68.46;100825.22;10295873;28;20050;-57
2024/02/28 06:10:17;;;;;;;28.83;12.77;;;;;;;3.46;68.53;100833.91;10291721;28;20061;-58
2024/02/28 06:15:19;;;;;;;32.80;13.25;;;;;;;3.61;68.16;100832.69;10299414;28;20046;-61
2024/02/28 06:20:20;;;;;;;36.10;13.25;;;;;;;3.69;68.78;100835.63;10297601;28;20151;-62
2024/02/28 06:25:23;;;;;;;31.70;10.77;;;;;;;3.83;68.29;100841.66;10297398;28;20043;-60
2024/02/28 06:30:25;;;;;;;34.70;13.15;;;;;;;3.92;68.17;100865.72;10302080;28;20057;-64
2024/02/28 06:35:26;;;;;;;34.25;12.38;;;;;;;3.99;67.94;100860.78;10301784;28;20042;-61
2024/02/28 06:40:29;;;;;;;25.75;10.88;;;;;;;3.95;68.05;100872.63;10296211;28;20052;-65
2024/02/28 06:45:33;;;;;;;29.42;11.48;;;;;;;4.02;67.97;100867.66;10307317;28;20054;-63
2024/02/28 06:50:35;;;;;;;27.65;10.85;;;;;;;4.08;68.46;100870.69;10307664;28;20383;-64
2024/02/28 06:55:36;;;;;;;35.03;14.57;;;;;;;4.17;67.88;100885.09;10303447;28;20414;-63
2024/02/28 07:00:38;;;;;;;30.92;12.63;;;;;;;4.08;67.96;100899.09;10304085;28;20671;-63
2024/02/28 07:05:39;;;;;;;38.35;15.45;;;;;;;4.11;68.35;100901.53;10320685;28;20383;-61
2024/02/28 07:10:43;;;;;;;38.55;14.75;;;;;;;4.17;68.39;100915.19;10328896;28;20115;-63
2024/02/28 07:15:44;;;;;;;39.22;16.38;;;;;;;4.30;67.91;100916.88;10347210;28;20114;-62
2024/02/28 07:20:46;;;;;;;40.90;15.73;;;;;;;4.36;68.45;100927.03;10340129;28;20077;-63
2024/02/28 07:25:47;;;;;;;31.58;13.82;;;;;;;4.47;68.36;100935.03;10342559;28;20090;-63
2024/02/28 07:30:49;;;;;;;34.00;12.82;;;;;;;4.53;68.02;100931.03;10344146;28;20149;-62
2024/02/28 07:35:52;;;;;;;36.53;13.82;;;;;;;4.60;68.09;100932.25;10338485;28;20116;-61
2024/02/28 07:40:54;;;;;;;41.70;16.35;;;;;;;4.74;68.08;100934.63;10341317;28;20051;-60
2024/02/28 07:45:55;;;;;;;50.70;17.10;;;;;;;4.81;67.57;100934.97;10343792;28;20050;-62
2024/02/28 07:50:57;;;;;;;40.25;15.85;;;;;;;4.87;67.81;100938.97;10344255;28;20050;-60
2024/02/28 07:55:58;;;;;;;33.97;13.73;;;;;;;4.97;67.53;100942.56;10338569;28;20107;-60
2024/02/28 08:01:00;;;;;;;44.47;11.23;;;;;;;4.82;67.81;100947.34;10343346;28;20070;-63
2024/02/28 08:06:01;;;;;;;26.75;11.45;;;;;;;4.71;68.33;100936.69;10343586;28;20057;-62
2024/02/28 08:11:03;;;;;;;27.83;10.25;;;;;;;4.90;67.49;100936.06;10346786;28;20119;-61
2024/02/28 08:16:06;;;;;;;36.10;12.15;;;;;;;5.07;67.48;100940.00;10319251;28;20101;-63
2024/02/28 08:21:08;;;;;;;31.17;12.05;;;;;;;5.28;67.22;100946.22;10301070;28;20058;-63
2024/02/28 08:26:11;;;;;;;32.65;12.10;;;;;;;5.50;67.40;100947.94;10300262;28;20648;-63
2024/02/28 08:31:12;;;;;;;37.75;11.05;;;;;;;5.69;66.89;100949.09;10299227;28;20038;-63
2024/02/28 08:36:15;;;;;;;21.42;9.55;;;;;;;5.74;67.28;100949.53;10301218;28;20046;-63
2024/02/28 08:41:17;;;;;;;25.23;10.40;;;;;;;5.90;66.37;100943.72;10297291;28;20668;-63
2024/02/28 08:46:18;;;;;;;29.05;11.27;;;;;;;6.19;66.30;100943.09;10299303;28;20405;-63
2024/02/28 08:51:20;;;;;;;21.27;9.63;;;;;;;6.20;66.23;100953.66;10300133;28;20050;-63
2024/02/28 08:56:21;;;;;;;23.08;11.25;;;;;;;6.44;66.58;100957.84;10299448;28;20047;-63
2024/02/28 09:01:22;;;;;;;24.60;10.75;;;;;;;6.76;65.88;100957.66;10298688;28;20047;-63
2024/02/28 09:06:24;;;;;;;17.80;9.20;;;;;;;6.84;65.91;100965.84;10295114;28;20058;-68
2024/02/28 09:11:26;;;;;;;22.13;10.43;;;;;;;7.05;65.88;100968.44;10278019;28;20054;-68
2024/02/28 09:16:28;;;;;;;21.25;9.77;;;;;;;7.25;65.37;100976.47;10297835;28;20074;-68
2024/02/28 09:21:30;;;;;;;25.98;11.32;;;;;;;7.22;65.59;100966.88;10299566;28;20053;-68
2024/02/28 09:26:31;;;;;;;21.65;9.70;;;;;;;7.26;65.23;100970.97;10319551;28;20605;-62
2024/02/28 09:31:33;;;;;;;23.70;9.85;;;;;;;7.33;65.19;100980.13;10328954;28;20509;-63
2024/02/28 09:36:47;;;;;;;25.40;10.77;;;;;;;7.54;64.88;100982.69;10325587;28;20051;-65
2024/02/28 09:41:52;;;;;;;20.25;9.68;;;;;;;7.65;64.68;100972.84;10342739;28;20050;-62
2024/02/28 09:46:53;;;;;;;22.42;9.02;;;;;;;7.99;64.20;100978.56;10329242;28;20061;-67
2024/02/28 09:51:56;;;;;;;22.73;10.13;;;;;;;8.37;63.14;100978.59;10323904;28;20062;-67
2024/02/28 09:56:59;;;;;;;25.30;9.80;;;;;;;8.30;63.24;100973.84;10321996;28;20062;-64
2024/02/28 10:02:01;;;;;;;23.40;10.90;;;;;;;8.39;63.23;100973.94;10329191;28;20110;-62
2024/02/28 10:07:15;;;;;;;24.65;11.18;;;;;;;8.71;62.68;100957.50;10344126;28;20039;-63
2024/02/28 10:12:16;;;;;;;23.10;10.23;;;;;;;8.42;63.07;100966.50;10349688;28;20055;-62
2024/02/28 10:17:18;;;;;;;23.10;9.98;;;;;;;8.59;62.57;100980.97;10348595;28;20030;-62
2024/02/28 10:22:19;;;;;;;19.40;8.95;;;;;;;8.74;62.40;100984.81;10346986;28;20030;-62
2024/02/28 10:27:21;;;;;;;26.73;10.75;;;;;;;9.25;61.71;100989.78;10350336;28;20069;-63
2024/02/28 10:32:22;;;;;;;23.95;10.30;;;;;;;9.41;62.01;100987.25;10328036;28;20073;-66
2024/02/28 10:37:24;;;;;;;24.13;9.93;;;;;;;9.78;61.22;100985.41;10310435;28;20058;-59
2024/02/28 10:42:27;;;;;;;21.98;10.57;;;;;;;9.82;61.12;100997.53;10310082;28;20049;-59
2024/02/28 10:47:29;;;;;;;23.02;11.38;;;;;;;9.97;60.64;100995.94;10306632;28;20054;-61
2024/02/28 10:52:33;;;;;;;25.05;11.27;;;;;;;9.99;60.65;100995.81;10308101;28;20069;-59
2024/02/28 10:57:36;;;;;;;23.98;11.38;;;;;;;10.27;60.14;100989.31;10310345;28;20053;-61
2024/02/28 11:02:38;;;;;;;22.05;10.13;;;;;;;10.68;59.64;100997.63;10302553;28;20058;-61
2024/02/28 11:07:42;;;;;;;24.02;10.68;;;;;;;11.11;58.42;100997.63;10301501;28;20077;-59
2024/02/28 11:12:54;;;;;;;22.92;10.68;;;;;;;11.71;57.53;100994.72;10299385;28;20067;-60
2024/02/28 11:18:07;;;;;;;24.90;11.07;;;;;;;12.25;56.51;100994.19;10306345;28;20517;-59
2024/02/28 11:23:09;;;;;;;24.73;11.57;;;;;;;12.33;56.46;100996.03;10307085;28;20053;-59
2024/02/28 11:28:11;;;;;;;24.95;10.48;;;;;;;12.73;55.56;100991.53;10313513;28;20054;-59
2024/02/28 11:33:12;;;;;;;20.50;10.32;;;;;;;12.91;54.65;100988.59;10310572;28;20054;-62
2024/02/28 11:38:14;;;;;;;22.92;9.82;;;;;;;13.21;53.98;100988.78;10307937;28;20053;-62
2024/02/28 11:43:17;;;;;;;22.95;10.27;;;;;;;13.52;53.48;100979.84;10303818;28;20061;-67
2024/02/28 11:48:20;;;;;;;18.00;9.23;;;;;;;13.42;53.29;100975.50;10304301;28;20064;-66
2024/02/28 11:53:26;;;;;;;19.95;9.98;;;;;;;13.48;53.03;100984.75;10306277;28;20118;-65
2024/02/28 11:58:27;;;;;;;21.45;10.63;;;;;;;13.43;52.86;100984.47;10299742;28;20061;-66
2024/02/28 12:03:29;;;;;;;21.30;9.55;;;;;;;13.72;52.02;100983.75;10307216;28;20066;-66
2024/02/28 12:08:30;;;;;;;20.42;10.30;;;;;;;17.98;43.64;100953.31;10302411;28;20043;-65
2024/02/28 12:13:32;;;;;;;20.42;11.05;;;;;;;21.47;37.65;100933.06;10300756;28;20046;-65
2024/02/28 12:18:34;;;;;;;18.95;10.18;;;;;;;24.40;33.66;100920.50;10315702;28;20063;-67
2024/02/28 12:23:36;;;;;;;18.67;11.07;;;;;;;22.01;37.14;100951.34;10319395;28;20062;-67
2024/02/28 12:28:37;;;;;;;21.40;10.57;;;;;;;19.03;42.40;100951.34;10305343;28;20133;-65
2024/02/28 12:33:39;;;;;;;22.15;11.35;;;;;;;17.40;44.65;100960.13;10297821;28;20062;-66
2024/02/28 12:38:41;;;;;;;20.23;11.18;;;;;;;16.23;46.17;100961.03;10309097;28;20061;-66
2024/02/28 12:43:42;;;;;;;21.30;10.93;;;;;;;15.58;46.82;100944.84;10309974;28;20051;-65
2024/02/28 12:48:46;;;;;;;24.08;10.98;;;;;;;14.73;48.05;100954.53;10305529;28;20038;-66
2024/02/28 12:53:49;;;;;;;20.00;10.65;;;;;;;14.91;47.53;100934.31;10293834;28;20133;-68
2024/02/28 12:58:52;;;;;;;22.20;11.90;;;;;;;15.39;46.63;100931.94;10302979;28;20062;-68
2024/02/28 13:03:55;;;;;;;20.52;9.75;;;;;;;18.62;40.74;100899.97;10300661;28;20058;-66
2024/02/28 13:08:56;;;;;;;24.58;11.38;;;;;;;21.59;35.68;100883.81;10296544;28;20046;-65
2024/02/28 13:13:58;;;;;;;19.92;11.25;;;;;;;23.87;32.82;100873.31;10296964;28;20057;-68
2024/02/28 13:18:59;;;;;;;22.17;12.05;;;;;;;26.51;29.74;100876.44;10295291;28;20133;-69
2024/02/28 13:24:01;;;;;;;22.33;12.00;;;;;;;26.44;30.02;100876.72;10299765;28;20050;-66
2024/02/28 13:29:02;;;;;;;21.73;11.80;;;;;;;26.98;29.64;100874.69;10294018;28;20073;-65
2024/02/28 13:34:04;;;;;;;20.15;11.65;;;;;;;28.34;27.72;100868.53;10299168;28;20055;-68
2024/02/28 13:39:05;;;;;;;17.27;10.57;;;;;;;29.10;27.04;100873.97;10295326;28;20093;-63
2024/02/28 13:44:09;;;;;;;19.13;11.57;;;;;;;28.81;27.32;100858.94;10297837;28;20050;-68
2024/02/28 13:49:10;;;;;;;19.17;10.68;;;;;;;29.39;26.16;100860.22;10295047;28;20046;-70
2024/02/28 13:54:12;;;;;;;16.90;11.48;;;;;;;29.74;25.66;100849.94;10299878;28;20046;-67
2024/02/28 13:59:13;;;;;;;20.15;11.50;;;;;;;30.31;25.07;100850.16;10290824;28;20052;-69
2024/02/28 14:04:15;;;;;;;14.85;10.90;;;;;;;30.63;24.37;100844.75;10296051;28;20532;-69
2024/02/28 14:09:16;;;;;;;16.27;10.68;;;;;;;28.88;25.64;100844.78;10298129;28;20126;-69
2024/02/28 14:14:18;;;;;;;16.63;10.60;;;;;;;28.82;26.09;100841.22;10297100;28;20055;-68
2024/02/28 14:19:19;;;;;;;17.58;10.90;;;;;;;27.76;26.76;100835.78;10294362;28;20142;-70
2024/02/28 14:24:21;;;;;;;14.68;9.93;;;;;;;28.34;25.79;100828.97;10302390;28;20745;-71
2024/02/28 14:29:22;;;;;;;17.15;10.55;;;;;;;27.22;26.84;100830.84;10296748;28;20047;-68
2024/02/28 14:34:24;;;;;;;16.15;10.02;;;;;;;26.19;27.57;100836.06;10296715;28;20055;-70
2024/02/28 14:39:25;;;;;;;15.75;10.32;;;;;;;25.07;28.57;100836.88;10284812;28;20053;-70
2024/02/28 14:44:26;;;;;;;15.18;10.10;;;;;;;24.18;28.83;100838.03;10295494;28;20106;-70
2024/02/28 14:49:28;;;;;;;14.65;9.13;;;;;;;23.48;29.24;100831.22;10300699;28;20387;-67
2024/02/28 14:54:29;;;;;;;16.00;9.73;;;;;;;22.27;31.10;100827.63;10307891;28;20440;-67
2024/02/28 14:59:31;;;;;;;15.52;9.20;;;;;;;21.91;31.81;100836.94;10303586;28;20078;-70
2024/02/28 15:04:33;;;;;;;15.93;9.80;;;;;;;21.47;31.90;100828.28;10298545;28;20539;-69
2024/02/28 15:09:35;;;;;;;16.15;8.82;;;;;;;21.61;31.22;100829.69;10303438;28;20115;-71
2024/02/28 15:14:40;;;;;;;15.68;8.90;;;;;;;20.88;32.38;100826.22;10304204;28;20109;-61
2024/02/28 15:19:41;;;;;;;17.50;8.15;;;;;;;20.23;33.00;100831.47;10305155;28;20047;-60
2024/02/28 15:24:43;;;;;;;15.48;8.10;;;;;;;19.58;33.95;100833.53;10307758;28;20046;-61
2024/02/28 15:29:44;;;;;;;17.50;8.60;;;;;;;18.96;34.88;100838.03;10308242;28;20047;-62
2024/02/28 15:34:45;;;;;;;17.73;10.52;;;;;;;18.68;35.32;100836.50;10295429;28;20405;-63
2024/02/28 15:39:48;;;;;;;18.48;9.05;;;;;;;18.14;35.80;100838.56;10293374;28;20418;-62
2024/02/28 15:44:50;;;;;;;13.23;8.25;;;;;;;17.72;36.55;100848.06;10320279;28;20150;-66
2024/02/28 15:49:51;;;;;;;20.13;9.18;;;;;;;17.58;36.92;100839.91;10315595;28;20150;-61
2024/02/28 15:54:53;;;;;;;16.30;8.48;;;;;;;17.38;37.16;100833.66;10315455;28;20051;-62
2024/02/28 15:59:55;;;;;;;14.77;8.02;;;;;;;16.65;38.30;100837.88;10311778;28;20493;-60
2024/02/28 16:04:56;;;;;;;16.70;8.07;;;;;;;16.08;38.73;100835.56;10328353;28;20047;-63
2024/02/28 16:09:58;;;;;;;14.23;7.85;;;;;;;15.56;39.58;100845.78;10318923;28;20134;-62
2024/02/28 16:14:59;;;;;;;18.60;9.02;;;;;;;15.06;40.69;100845.78;10322275;28;20042;-64
2024/02/28 16:20:02;;;;;;;19.95;9.40;;;;;;;14.60;41.08;100851.53;10314739;28;20039;-63
2024/02/28 16:25:05;;;;;;;18.85;8.13;;;;;;;14.17;41.64;100844.09;10293155;28;20847;-66
2024/02/28 16:30:08;;;;;;;13.55;7.60;;;;;;;13.79;42.32;100855.00;10284863;28;20054;-64
2024/02/28 16:35:09;;;;;;;18.13;8.98;;;;;;;13.40;42.89;100857.91;10299637;28;20526;-66
2024/02/28 16:40:11;;;;;;;18.50;8.40;;;;;;;13.03;43.83;100852.25;10303291;28;20054;-66
2024/02/28 16:45:12;;;;;;;18.20;8.85;;;;;;;12.71;44.44;100853.28;10302070;28;20055;-66
2024/02/28 16:50:14;;;;;;;17.42;7.93;;;;;;;12.42;45.66;100856.66;10303553;28;20058;-66
2024/02/28 16:55:15;;;;;;;20.38;9.00;;;;;;;12.14;45.86;100858.97;10297860;28;20406;-65
2024/02/28 17:00:19;;;;;;;19.48;8.80;;;;;;;11.88;46.74;100855.44;10300714;28;20098;-66
2024/02/28 17:05:20;;;;;;;18.10;8.73;;;;;;;11.61;47.73;100864.78;10299463;28;20154;-66
2024/02/28 17:10:22;;;;;;;21.23;8.73;;;;;;;11.40;48.00;100856.38;10299683;28;20069;-66
2024/02/28 17:15:23;;;;;;;22.08;9.70;;;;;;;11.15;48.37;100859.06;10301782;28;20053;-65
2024/02/28 17:20:26;;;;;;;18.42;8.88;;;;;;;10.98;48.73;100858.22;10296347;28;20137;-67
2024/02/28 17:25:27;;;;;;;23.50;10.48;;;;;;;10.78;49.72;100860.38;10302199;28;20053;-65
2024/02/28 17:30:29;;;;;;;16.88;8.73;;;;;;;10.62;50.17;100873.75;10297772;28;20070;-66
2024/02/28 17:35:30;;;;;;;22.70;9.30;;;;;;;10.43;50.71;100864.97;10300730;28;20061;-61
2024/02/28 17:40:33;;;;;;;19.50;9.15;;;;;;;10.31;50.75;100860.88;10312686;28;20047;-61
2024/02/28 17:45:34;;;;;;;31.00;13.05;;;;;;;10.21;51.42;100862.78;10301244;28;20142;-58
2024/02/28 17:50:38;;;;;;;29.40;14.23;;;;;;;9.86;52.64;100875.38;10298038;28;20114;-58
2024/02/28 17:55:39;;;;;;;26.77;12.02;;;;;;;9.75;52.81;100862.22;10301462;28;20058;-58
2024/02/28 18:00:40;;;;;;;23.33;9.85;;;;;;;9.59;53.23;100871.84;10302997;28;20055;-58
2024/02/28 18:05:42;;;;;;;20.70;9.60;;;;;;;9.46;53.56;100883.00;10300344;28;20053;-58
2024/02/28 18:10:43;;;;;;;21.65;9.82;;;;;;;9.19;54.28;100869.69;10294667;28;20500;-58
2024/02/28 18:15:45;;;;;;;19.27;9.13;;;;;;;9.07;54.92;100882.47;10300634;28;20518;-59
2024/02/28 18:20:46;;;;;;;25.65;11.73;;;;;;;8.99;54.86;100879.72;10298455;28;20051;-58
2024/02/28 18:25:48;;;;;;;20.83;9.38;;;;;;;8.75;55.82;100875.81;10305341;28;20046;-59
2024/02/28 18:30:49;;;;;;;22.15;9.23;;;;;;;8.73;55.55;100873.25;10299466;28;20413;-58
2024/02/28 18:35:51;;;;;;;17.83;10.38;;;;;;;8.71;56.17;100866.38;10293451;28;20469;-58
2024/02/28 18:40:53;;;;;;;23.67;9.18;;;;;;;8.68;55.83;100867.50;10308088;28;20060;-58
2024/02/28 18:45:54;;;;;;;26.20;11.95;;;;;;;8.61;56.45;100869.13;10308338;28;20050;-60
2024/02/28 18:50:57;;;;;;;23.67;9.52;;;;;;;8.47;56.92;100856.19;10306395;28;20145;-62
2024/02/28 18:55:59;;;;;;;27.45;11.45;;;;;;;8.41;57.18;100852.31;10305398;28;20051;-60
2024/02/28 19:01:00;;;;;;;25.88;10.45;;;;;;;8.32;57.27;100854.00;10308625;28;20517;-61
2024/02/28 19:06:02;;;;;;;22.67;10.15;;;;;;;8.28;57.36;100849.09;10308308;28;20354;-60
2024/02/28 19:11:04;;;;;;;26.90;9.60;;;;;;;8.23;57.86;100844.16;10308440;28;20050;-59
2024/02/28 19:16:06;;;;;;;17.80;8.27;;;;;;;8.20;57.77;100847.16;10300413;28;20039;-60
2024/02/28 19:21:07;;;;;;;20.83;9.68;;;;;;;7.97;58.57;100849.34;10300541;28;20078;-60
2024/02/28 19:26:09;;;;;;;18.30;8.88;;;;;;;8.01;59.12;100857.94;10304697;28;20050;-60
2024/02/28 19:31:12;;;;;;;21.02;9.43;;;;;;;7.91;59.09;100858.81;10317546;28;20390;-59
2024/02/28 19:36:13;;;;;;;22.80;9.07;;;;;;;7.90;59.31;100850.97;10331477;28;20051;-60
2024/02/28 19:41:15;;;;;;;20.38;9.80;;;;;;;7.86;59.21;100855.75;10341771;28;20039;-61
2024/02/28 19:46:16;;;;;;;24.77;9.98;;;;;;;7.80;59.71;100863.50;10341056;28;20050;-60
2024/02/28 19:51:18;;;;;;;19.67;9.68;;;;;;;7.73;59.73;100864.09;10320975;28;20042;-60
2024/02/28 19:56:22;;;;;;;21.48;9.63;;;;;;;7.65;59.92;100858.63;10311973;28;20046;-59
2024/02/28 20:01:23;;;;;;;19.15;8.65;;;;;;;7.57;59.68;100863.00;10295479;28;20509;-59
2024/02/28 20:06:25;;;;;;;26.95;10.93;;;;;;;7.45;60.07;100859.66;10304653;28;20087;-58
2024/02/28 20:11:27;;;;;;;24.58;11.45;;;;;;;7.34;60.07;100858.78;10296836;28;20043;-58
2024/02/28 20:16:28;;;;;;;28.80;12.68;;;;;;;7.24;60.94;100844.59;10301730;28;20046;-63
2024/02/28 20:21:30;;;;;;;27.73;11.32;;;;;;;7.18;60.70;100847.00;10300740;28;20054;-58
2024/02/28 20:26:31;;;;;;;31.77;13.52;;;;;;;7.05;61.08;100865.97;10303750;28;20055;-58
2024/02/28 20:31:33;;;;;;;35.28;13.68;;;;;;;6.94;61.12;100856.28;10298193;28;20066;-58
2024/02/28 20:36:35;;;;;;;31.65;11.48;;;;;;;6.87;61.22;100853.34;10296824;28;20050;-57
2024/02/28 20:41:38;;;;;;;41.58;13.63;;;;;;;6.77;61.24;100840.94;10296030;28;20388;-58
2024/02/28 20:46:40;;;;;;;40.65;15.45;;;;;;;6.65;61.93;100850.91;10298596;28;20068;-58
2024/02/28 20:51:41;;;;;;;34.08;12.95;;;;;;;6.46;61.34;100855.25;10294291;28;20085;-58
2024/02/28 20:56:43;;;;;;;26.25;9.77;;;;;;;6.23;62.36;100848.41;10296777;28;20661;-58
2024/02/28 21:01:45;;;;;;;26.50;10.32;;;;;;;6.07;62.66;100860.44;10300380;28;20083;-60
2024/02/28 21:06:47;;;;;;;24.33;10.23;;;;;;;6.01;62.86;100855.63;10297961;28;20055;-60
2024/02/28 21:12:02;;;;;;;26.52;11.55;;;;;;;5.93;63.07;100845.59;10300245;28;20055;-59
2024/02/28 21:17:04;;;;;;;23.63;9.10;;;;;;;5.89;63.48;100851.34;10308024;28;20053;-60
2024/02/28 21:22:06;;;;;;;23.48;9.95;;;;;;;5.81;63.48;100848.50;10303195;28;20102;-60
2024/02/28 21:27:07;;;;;;;19.90;9.35;;;;;;;5.80;63.60;100842.31;10308268;28;20100;-60
2024/02/28 21:32:09;;;;;;;22.38;10.25;;;;;;;5.78;63.31;100836.25;10293775;28;20587;-60
2024/02/28 21:37:10;;;;;;;29.75;12.27;;;;;;;5.71;63.51;100827.13;10302393;28;20053;-59
2024/02/28 21:42:11;;;;;;;29.55;10.27;;;;;;;5.54;63.91;100831.22;10303716;28;20551;-59
2024/02/28 21:47:13;;;;;;;23.45;9.85;;;;;;;5.44;64.46;100827.66;10304679;28;20043;-59
2024/02/28 21:52:14;;;;;;;21.50;10.35;;;;;;;5.47;63.63;100830.03;10300575;28;20090;-59
2024/02/28 21:57:16;;;;;;;23.70;8.45;;;;;;;5.44;64.23;100819.66;10296974;28;20212;-59
2024/02/28 22:02:18;;;;;;;21.42;9.77;;;;;;;5.36;64.13;100812.31;10292537;28;20050;-59
2024/02/28 22:07:19;;;;;;;16.73;8.23;;;;;;;5.33;64.51;100809.91;10294868;28;20042;-59
2024/02/28 22:12:21;;;;;;;20.70;9.10;;;;;;;5.24;64.31;100811.53;10299415;28;20070;-60
2024/02/28 22:17:22;;;;;;;22.30;8.70;;;;;;;5.19;64.33;100820.88;10296432;28;20046;-60
2024/02/28 22:22:24;;;;;;;15.43;7.45;;;;;;;5.12;64.28;100818.75;10283042;28;20046;-60
2024/02/28 22:27:25;;;;;;;21.05;8.50;;;;;;;4.98;64.88;100813.75;10285983;28;20417;-60
2024/02/28 22:32:27;;;;;;;22.42;8.68;;;;;;;4.96;64.48;100805.88;10296998;28;20046;-60
2024/02/28 22:37:29;;;;;;;22.58;8.10;;;;;;;4.89;64.92;100804.69;10298842;28;20470;-59
2024/02/28 22:42:30;;;;;;;20.67;7.70;;;;;;;4.85;64.54;100791.75;10311524;28;20074;-59
2024/02/28 22:47:32;;;;;;;18.35;8.13;;;;;;;4.76;64.16;100804.03;10313321;28;20505;-59
2024/02/28 22:52:33;;;;;;;20.30;8.63;;;;;;;4.54;65.59;100818.25;10304452;28;20062;-59